This is the latest recevied weather packets stored in our database for station/object N5CNB-2. If no packets are shown the sender has not sent any weather packets the latest 10 day(s).
| Time | Temp. | Humidity | Pressure | Rain* | Wind** | Luminosity | Snow |
|---|---|---|---|---|---|---|---|
| 1777157159 | 30.56° C | 69% | 1006 hPa | 0 mm | - | - | - |
| 1777156253 | 31.11° C | 69% | 1006 hPa | 0 mm | - | - | - |
| 1777155357 | 31.11° C | 68% | 1006 hPa | 0 mm | - | - | - |
| 1777154457 | 31.11° C | 66% | 1006 hPa | 0 mm | - | - | - |
| 1777153557 | 31.11° C | 67% | 1006 hPa | 0 mm | - | - | - |
| 1777152661 | 32.22° C | 63% | 1006.2 hPa | 0 mm | - | - | - |
| 1777151760 | 32.22° C | 65% | 1006.2 hPa | 0 mm | - | - | - |
| 1777150860 | 31.67° C | 65% | 1006.3 hPa | 0 mm | - | - | - |
| 1777149954 | 31.67° C | 65% | 1006.5 hPa | 0 mm | - | - | - |
| 1777149057 | 31.67° C | 66% | 1006.5 hPa | 0 mm | - | - | - |
| 1777148158 | 31.11° C | 66% | 1006.6 hPa | 0 mm | - | - | - |
| 1777147267 | 31.67° C | 65% | 1006.8 hPa | 0 mm | - | - | - |
| 1777146352 | 31.11° C | 68% | 1007.2 hPa | 0 mm | - | - | - |
| 1777145474 | 31.11° C | 66% | 1007.2 hPa | 0 mm | - | - | - |
| 1777144552 | 31.67° C | 68% | 1007.3 hPa | 0 mm | - | - | - |
| 1777143664 | 30.56° C | 71% | 1007.6 hPa | 0 mm | - | - | - |
| 1777142756 | 30.56° C | 72% | 1007.7 hPa | 0 mm | - | - | - |
| 1777141857 | 30° C | 71% | 1008 hPa | 0 mm | - | - | - |
| 1777140964 | 28.89° C | 74% | 1008.2 hPa | 0 mm | - | - | - |
| 1777140071 | 28.33° C | 78% | 1008.3 hPa | 0 mm | - | - | - |
| 1777139163 | 27.78° C | 78% | 1008.4 hPa | 0 mm | - | - | - |
| 1777138270 | 27.78° C | 78% | 1008.6 hPa | 0 mm | - | - | - |
| 1777137355 | 27.78° C | 78% | 1008.9 hPa | 0 mm | - | - | - |
| 1777136520 | 27.22° C | 80% | 1009.2 hPa | 0 mm | - | - | - |
| 1777135567 | 26.67° C | 81% | 1009.2 hPa | 0 mm | - | - | - |
* Rain latest hour (hover to see other rain measurements)
** Current wind speed in m/s (hover to see current wind gust speed)